Time;durP1;ratioP1;P1;durP2;ratioP2;P2;SDS_P1;SDS_P2;PMS_P1;PMS_P2;Temp;Humidity;BMP_temperature;BMP_pressure;BME280_temperature;BME280_humidity;BME280_pressure;Samples;Min_cycle;Max_cycle;Signal;HPM_P1;HPM_P2
2022/02/12 00:00:32;;;;;;;3.30;1.92;;;;;;;;;;5035394;28;20214;-82
2022/02/12 00:03:00;;;;;;;2.55;1.60;;;;;;;;;;5035397;28;20206;-82
2022/02/12 00:05:28;;;;;;;3.03;2.17;;;;;;;;;;5034890;28;20647;-82
2022/02/12 00:07:56;;;;;;;2.58;2.38;;;;;;;;;;5035351;28;20276;-82
2022/02/12 00:10:26;;;;;;;3.13;2.58;;;;;;;;;;5034973;28;20222;-82
2022/02/12 00:12:54;;;;;;;6.60;3.38;;;;;;;;;;5035301;28;20202;-82
2022/02/12 00:15:21;;;;;;;5.40;3.13;;;;;;;;;;5034130;28;20233;-82
2022/02/12 00:17:49;;;;;;;4.95;3.17;;;;;;;;;;5034731;28;20241;-82
2022/02/12 00:20:17;;;;;;;3.85;2.25;;;;;;;;;;5034556;28;20202;-82
2022/02/12 00:22:45;;;;;;;4.18;2.63;;;;;;;;;;5035060;28;20209;-82
2022/02/12 00:25:13;;;;;;;1.60;1.48;;;;;;;;;;5034803;28;20229;-82
2022/02/12 00:27:42;;;;;;;2.80;2.50;;;;;;;;;;5034847;28;20701;-82
2022/02/12 00:30:11;;;;;;;5.15;3.70;;;;;;;;;;5035011;28;20206;-82
2022/02/12 00:32:38;;;;;;;3.10;2.25;;;;;;;;;;5034242;28;20219;-82
2022/02/12 00:35:06;;;;;;;5.07;3.10;;;;;;;;;;5035450;28;20264;-82
2022/02/12 00:37:33;;;;;;;2.47;1.80;;;;;;;;;;5034646;28;20816;-82
2022/02/12 00:40:01;;;;;;;2.35;2.15;;;;;;;;;;5034833;28;20210;-82
2022/02/12 00:42:28;;;;;;;2.95;1.98;;;;;;;;;;5034946;28;20260;-82
2022/02/12 00:44:57;;;;;;;1.30;1.20;;;;;;;;;;5034647;28;20202;-82
2022/02/12 00:47:27;;;;;;;4.05;1.90;;;;;;;;;;5035545;28;20206;-82
2022/02/12 00:49:55;;;;;;;2.22;1.55;;;;;;;;;;5034955;28;20682;-82
2022/02/12 00:52:22;;;;;;;0.95;0.95;;;;;;;;;;5034304;28;20241;-82
2022/02/12 00:54:49;;;;;;;1.17;1.08;;;;;;;;;;5035127;28;20210;-82
2022/02/12 00:57:17;;;;;;;3.35;1.42;;;;;;;;;;5034566;28;20764;-83
2022/02/12 00:59:44;;;;;;;1.50;1.40;;;;;;;;;;5034570;28;20278;-82
2022/02/12 01:02:12;;;;;;;3.42;2.70;;;;;;;;;;5033803;28;20206;-83
2022/02/12 01:04:40;;;;;;;3.63;2.30;;;;;;;;;;5033969;28;20202;-82
2022/02/12 01:07:07;;;;;;;2.58;2.35;;;;;;;;;;5034007;28;20218;-82
2022/02/12 01:09:37;;;;;;;5.07;3.15;;;;;;;;;;5034369;28;20232;-82
2022/02/12 01:12:06;;;;;;;4.35;2.58;;;;;;;;;;5033680;28;20230;-82
2022/02/12 01:14:33;;;;;;;2.47;2.22;;;;;;;;;;5033887;28;20202;-82
2022/02/12 01:17:01;;;;;;;2.10;1.88;;;;;;;;;;5034740;28;20657;-83
2022/02/12 01:19:29;;;;;;;5.03;3.55;;;;;;;;;;5034342;28;20198;-82
2022/02/12 01:21:57;;;;;;;3.25;2.85;;;;;;;;;;5034143;28;20202;-83
2022/02/12 01:24:24;;;;;;;3.08;2.67;;;;;;;;;;5034368;28;20202;-82
2022/02/12 01:26:51;;;;;;;2.50;2.30;;;;;;;;;;5033894;28;20277;-82
2022/02/12 01:29:19;;;;;;;2.17;2.00;;;;;;;;;;5033986;28;20616;-82
2022/02/12 01:31:46;;;;;;;5.70;3.13;;;;;;;;;;5035170;28;20643;-83
2022/02/12 01:34:13;;;;;;;3.20;2.47;;;;;;;;;;5038072;28;20248;-83
2022/02/12 01:36:42;;;;;;;2.92;2.65;;;;;;;;;;5037701;28;20325;-82
2022/02/12 01:39:09;;;;;;;5.72;3.45;;;;;;;;;;5037239;28;20213;-83
2022/02/12 01:41:36;;;;;;;4.32;2.70;;;;;;;;;;5037495;28;20206;-83
2022/02/12 01:44:09;;;;;;;2.40;2.20;;;;;;;;;;5038398;28;20202;-83
2022/02/12 01:46:37;;;;;;;2.40;2.20;;;;;;;;;;5037531;28;20222;-83
2022/02/12 01:49:04;;;;;;;2.42;2.22;;;;;;;;;;5037609;28;20202;-83
2022/02/12 01:51:32;;;;;;;2.13;1.90;;;;;;;;;;5040288;28;20249;-83
2022/02/12 01:54:01;;;;;;;3.35;2.53;;;;;;;;;;5040017;28;20207;-83
2022/02/12 01:56:29;;;;;;;3.58;2.17;;;;;;;;;;5040451;28;20731;-83
2022/02/12 01:58:56;;;;;;;6.05;3.05;;;;;;;;;;5039473;28;20210;-83
2022/02/12 02:01:24;;;;;;;3.83;3.47;;;;;;;;;;5038639;28;20206;-83
2022/02/12 02:03:51;;;;;;;3.97;3.00;;;;;;;;;;5038595;28;20225;-83
2022/02/12 02:06:18;;;;;;;2.30;2.15;;;;;;;;;;5038189;28;20223;-83
2022/02/12 02:08:46;;;;;;;3.55;2.85;;;;;;;;;;5038657;28;20805;-83
2022/02/12 02:11:15;;;;;;;6.13;3.65;;;;;;;;;;5038401;28;20206;-83
2022/02/12 02:13:42;;;;;;;5.95;3.65;;;;;;;;;;5037998;28;20213;-83
2022/02/12 02:16:14;;;;;;;4.90;3.30;;;;;;;;;;5037326;28;20233;-83
2022/02/12 02:18:42;;;;;;;2.58;1.95;;;;;;;;;;5038745;28;20203;-83
2022/02/12 02:21:10;;;;;;;2.17;2.05;;;;;;;;;;5038038;28;20211;-83
2022/02/12 02:23:40;;;;;;;5.40;3.00;;;;;;;;;;5038153;28;20198;-82
2022/02/12 02:26:08;;;;;;;5.10;3.03;;;;;;;;;;5037345;28;20234;-83
2022/02/12 02:28:36;;;;;;;5.43;2.58;;;;;;;;;;5038168;28;20678;-83
2022/02/12 02:31:04;;;;;;;4.68;3.85;;;;;;;;;;5037826;28;20206;-83
2022/02/12 02:33:31;;;;;;;4.70;3.38;;;;;;;;;;5037222;28;20222;-83
2022/02/12 02:35:58;;;;;;;2.47;1.95;;;;;;;;;;5036922;28;20272;-83
2022/02/12 02:38:26;;;;;;;2.67;1.85;;;;;;;;;;5037806;28;20213;-83
2022/02/12 02:40:56;;;;;;;1.70;1.60;;;;;;;;;;5037998;28;20207;-83
2022/02/12 02:43:24;;;;;;;2.33;1.88;;;;;;;;;;5037037;28;20198;-83
2022/02/12 02:45:51;;;;;;;2.45;1.95;;;;;;;;;;5037002;28;20226;-83
2022/02/12 02:48:19;;;;;;;2.55;1.98;;;;;;;;;;5037046;28;20213;-82
2022/02/12 02:56:17;;;;;;;1.95;1.75;;;;;;;;;;5014433;28;20257;-82
2022/02/12 02:58:47;;;;;;;4.55;2.70;;;;;;;;;;5037085;28;20595;-82
2022/02/12 03:01:16;;;;;;;9.50;3.45;;;;;;;;;;5036644;28;20210;-82
2022/02/12 03:03:47;;;;;;;2.53;1.95;;;;;;;;;;5037350;28;20226;-82
2022/02/12 03:06:16;;;;;;;3.00;1.75;;;;;;;;;;5036831;28;20226;-82
2022/02/12 03:08:44;;;;;;;4.88;2.15;;;;;;;;;;5037029;28;20281;-83
2022/02/12 03:11:14;;;;;;;10.05;4.85;;;;;;;;;;5037071;28;20213;-82
2022/02/12 03:13:44;;;;;;;5.85;3.75;;;;;;;;;;5036399;28;20224;-82
2022/02/12 03:16:12;;;;;;;9.38;4.90;;;;;;;;;;5036630;28;20235;-82
2022/02/12 03:18:41;;;;;;;7.57;5.43;;;;;;;;;;5036995;28;20198;-82
2022/02/12 03:21:08;;;;;;;9.02;4.45;;;;;;;;;;5036418;28;20202;-82
2022/02/12 03:23:36;;;;;;;3.30;2.10;;;;;;;;;;5036600;28;20621;-82
2022/02/12 03:26:04;;;;;;;3.45;2.88;;;;;;;;;;5036026;28;20222;-82
2022/02/12 03:28:31;;;;;;;2.80;2.25;;;;;;;;;;5036383;28;20205;-82
2022/02/12 03:31:00;;;;;;;7.03;4.85;;;;;;;;;;5035707;28;20218;-82
2022/02/12 03:33:27;;;;;;;6.05;3.72;;;;;;;;;;5035935;28;20225;-83
2022/02/12 03:35:55;;;;;;;4.25;3.55;;;;;;;;;;5035666;28;20226;-82
2022/02/12 03:38:24;;;;;;;7.60;3.50;;;;;;;;;;5035363;28;20202;-82
2022/02/12 03:40:54;;;;;;;3.15;1.98;;;;;;;;;;5036037;28;20218;-83
2022/02/12 03:43:22;;;;;;;2.83;1.67;;;;;;;;;;5035742;28;20206;-82
2022/02/12 03:45:49;;;;;;;2.08;1.48;;;;;;;;;;5035913;28;20214;-82
2022/02/12 03:48:18;;;;;;;4.50;1.67;;;;;;;;;;5035677;28;20202;-83
2022/02/12 03:50:45;;;;;;;1.52;1.42;;;;;;;;;;5035332;28;20253;-82
2022/02/12 03:53:13;;;;;;;4.70;1.85;;;;;;;;;;5035363;28;20280;-83
2022/02/12 03:55:40;;;;;;;4.40;2.95;;;;;;;;;;5035111;28;20710;-82
2022/02/12 03:58:10;;;;;;;3.67;2.00;;;;;;;;;;5036087;28;20202;-82
2022/02/12 04:00:37;;;;;;;2.97;1.90;;;;;;;;;;5035563;28;20211;-83
2022/02/12 04:03:05;;;;;;;8.00;4.55;;;;;;;;;;5035767;28;20210;-82
2022/02/12 04:05:36;;;;;;;10.95;6.32;;;;;;;;;;5035305;28;20219;-82
2022/02/12 04:08:04;;;;;;;10.07;4.50;;;;;;;;;;5035838;28;20616;-83
2022/02/12 04:10:32;;;;;;;5.15;2.22;;;;;;;;;;5035319;28;20201;-83
2022/02/12 04:12:59;;;;;;;4.05;2.63;;;;;;;;;;5035367;28;20230;-83
2022/02/12 04:15:27;;;;;;;4.82;2.60;;;;;;;;;;5035367;28;20227;-83
2022/02/12 04:17:55;;;;;;;2.83;1.85;;;;;;;;;;5035880;28;20202;-83
2022/02/12 04:20:24;;;;;;;5.05;1.70;;;;;;;;;;5035406;28;20867;-83
2022/02/12 04:22:53;;;;;;;3.58;2.55;;;;;;;;;;5035595;28;20203;-83
2022/02/12 04:25:23;;;;;;;2.03;1.77;;;;;;;;;;5035557;28;20230;-83
2022/02/12 04:27:50;;;;;;;1.48;1.00;;;;;;;;;;5035889;28;20202;-83
2022/02/12 04:30:18;;;;;;;1.48;1.35;;;;;;;;;;5035442;28;20202;-83
2022/02/12 04:32:45;;;;;;;2.08;1.85;;;;;;;;;;5035176;28;20218;-83
2022/02/12 04:35:15;;;;;;;2.67;1.85;;;;;;;;;;5034808;28;20195;-82
2022/02/12 04:37:43;;;;;;;1.33;1.10;;;;;;;;;;5035149;28;20202;-83
2022/02/12 04:40:14;;;;;;;1.40;1.30;;;;;;;;;;5034916;28;20217;-83
2022/02/12 04:42:41;;;;;;;1.70;1.00;;;;;;;;;;5034711;28;20249;-83
2022/02/12 04:45:10;;;;;;;2.33;1.75;;;;;;;;;;5035041;28;20209;-83
2022/02/12 04:47:40;;;;;;;2.13;1.48;;;;;;;;;;5035023;28;20203;-82
2022/02/12 04:50:09;;;;;;;1.70;1.52;;;;;;;;;;5034360;28;20655;-83
2022/02/12 04:52:36;;;;;;;1.45;1.35;;;;;;;;;;5034471;28;20586;-82
2022/02/12 04:55:03;;;;;;;1.38;1.23;;;;;;;;;;5034054;28;20222;-82
2022/02/12 04:57:33;;;;;;;2.10;1.55;;;;;;;;;;5034446;28;20213;-82
2022/02/12 05:00:00;;;;;;;2.28;1.45;;;;;;;;;;5034333;28;20260;-82
2022/02/12 05:02:27;;;;;;;1.75;1.35;;;;;;;;;;5033779;28;20206;-82
2022/02/12 05:04:54;;;;;;;5.88;2.58;;;;;;;;;;5033935;28;20682;-83
2022/02/12 05:07:22;;;;;;;1.10;1.10;;;;;;;;;;5038156;28;20268;-82
2022/02/12 05:09:49;;;;;;;4.38;1.88;;;;;;;;;;5038531;28;20206;-82
2022/02/12 05:12:17;;;;;;;4.82;2.17;;;;;;;;;;5038328;28;20608;-81
2022/02/12 05:14:45;;;;;;;1.58;1.20;;;;;;;;;;5037780;28;20616;-82
2022/02/12 05:17:13;;;;;;;2.35;1.38;;;;;;;;;;5038895;28;20241;-83
2022/02/12 05:19:40;;;;;;;1.40;1.20;;;;;;;;;;5038313;28;20206;-82
2022/02/12 05:22:08;;;;;;;2.72;1.33;;;;;;;;;;5038264;28;20847;-83
2022/02/12 05:24:35;;;;;;;1.80;1.38;;;;;;;;;;5038376;28;20679;-82
2022/02/12 05:27:03;;;;;;;1.05;0.90;;;;;;;;;;5037792;28;20230;-82
2022/02/12 05:29:30;;;;;;;0.90;0.90;;;;;;;;;;5038077;28;20608;-82
2022/02/12 05:31:58;;;;;;;1.73;0.88;;;;;;;;;;5037978;28;20666;-83
2022/02/12 05:34:26;;;;;;;1.80;1.27;;;;;;;;;;5038210;28;20745;-82
2022/02/12 05:36:54;;;;;;;1.50;1.20;;;;;;;;;;5038073;28;20257;-82
2022/02/12 05:39:21;;;;;;;1.23;1.10;;;;;;;;;;5038395;28;20202;-82
2022/02/12 05:41:49;;;;;;;0.80;0.80;;;;;;;;;;5037483;28;20255;-82
2022/02/12 05:44:16;;;;;;;2.70;1.10;;;;;;;;;;5037907;28;20209;-82
2022/02/12 05:46:43;;;;;;;1.75;1.48;;;;;;;;;;5039096;28;20222;-82
2022/02/12 05:49:12;;;;;;;2.65;1.60;;;;;;;;;;5043988;28;20210;-82
2022/02/12 05:51:39;;;;;;;1.13;1.13;;;;;;;;;;5044574;28;20203;-83
2022/02/12 05:54:06;;;;;;;1.77;1.60;;;;;;;;;;5044117;28;20233;-82
2022/02/12 05:56:35;;;;;;;2.20;1.20;;;;;;;;;;5043910;28;20633;-82
2022/02/12 05:59:07;;;;;;;4.47;1.35;;;;;;;;;;5044568;28;20206;-81
2022/02/12 06:01:35;;;;;;;1.42;1.23;;;;;;;;;;5045254;28;20289;-82
2022/02/12 06:04:02;;;;;;;1.35;1.20;;;;;;;;;;5045213;28;20198;-82
2022/02/12 06:06:30;;;;;;;2.13;1.70;;;;;;;;;;5044981;28;20226;-82
2022/02/12 06:08:58;;;;;;;2.38;2.15;;;;;;;;;;5043820;28;20198;-81
2022/02/12 06:11:25;;;;;;;2.33;1.63;;;;;;;;;;5044194;28;20199;-81
2022/02/12 06:13:52;;;;;;;1.83;1.42;;;;;;;;;;5044064;28;20226;-82
2022/02/12 06:16:20;;;;;;;1.35;1.25;;;;;;;;;;5042965;28;20222;-81
2022/02/12 06:18:48;;;;;;;1.52;1.42;;;;;;;;;;5043377;28;20214;-82
2022/02/12 06:21:15;;;;;;;1.50;1.40;;;;;;;;;;5045358;28;20641;-81
2022/02/12 06:23:44;;;;;;;2.78;1.55;;;;;;;;;;5044817;28;20209;-81
2022/02/12 06:26:12;;;;;;;5.32;1.52;;;;;;;;;;5057708;28;20217;-83
2022/02/12 06:28:39;;;;;;;3.08;1.55;;;;;;;;;;5062467;28;20196;-82
2022/02/12 06:31:06;;;;;;;7.60;3.45;;;;;;;;;;5053009;28;20201;-86
2022/02/12 06:33:34;;;;;;;2.13;1.90;;;;;;;;;;5045738;28;20671;-82
2022/02/12 06:36:01;;;;;;;2.15;1.95;;;;;;;;;;5049823;28;20314;-82
2022/02/12 06:38:29;;;;;;;2.05;1.83;;;;;;;;;;5059276;28;20731;-82
2022/02/12 06:40:58;;;;;;;1.85;1.75;;;;;;;;;;5057242;28;20198;-82
2022/02/12 06:43:26;;;;;;;3.15;2.05;;;;;;;;;;5058075;28;20210;-81
2022/02/12 06:45:53;;;;;;;1.77;1.67;;;;;;;;;;5043934;28;20227;-82
2022/02/12 06:48:20;;;;;;;2.72;1.92;;;;;;;;;;5045123;28;20203;-80
2022/02/12 06:50:48;;;;;;;2.00;1.80;;;;;;;;;;5045205;28;20708;-81
2022/02/12 06:53:15;;;;;;;2.33;1.85;;;;;;;;;;5044169;28;20202;-82
2022/02/12 06:55:43;;;;;;;1.52;1.42;;;;;;;;;;5045244;28;20234;-82
2022/02/12 06:58:12;;;;;;;1.70;1.40;;;;;;;;;;5045401;28;20210;-83
2022/02/12 07:00:39;;;;;;;2.35;2.00;;;;;;;;;;5056741;28;20212;-83
2022/02/12 07:03:06;;;;;;;6.65;2.70;;;;;;;;;;5064469;28;20205;-82
2022/02/12 07:05:35;;;;;;;2.00;1.80;;;;;;;;;;5064316;28;20222;-83
2022/02/12 07:08:02;;;;;;;2.53;1.95;;;;;;;;;;5043485;28;20209;-82
2022/02/12 07:10:31;;;;;;;1.80;1.70;;;;;;;;;;5045337;28;20211;-83
2022/02/12 07:12:58;;;;;;;3.80;2.13;;;;;;;;;;5044619;28;20214;-82
2022/02/12 07:15:27;;;;;;;1.52;1.42;;;;;;;;;;5044965;28;20581;-83
2022/02/12 07:17:54;;;;;;;2.85;1.98;;;;;;;;;;5047519;28;20202;-82
2022/02/12 07:20:21;;;;;;;2.10;1.60;;;;;;;;;;5049408;28;20211;-82
2022/02/12 07:22:49;;;;;;;3.83;2.03;;;;;;;;;;5046291;28;20210;-83
2022/02/12 07:25:17;;;;;;;2.55;2.35;;;;;;;;;;5051907;28;20651;-82
2022/02/12 07:27:54;;;;;;;1.88;1.60;;;;;;;;;;5045393;28;20209;-81
2022/02/12 07:30:48;;;;;;;1.90;1.80;;;;;;;;;;5051123;28;20233;-82
2022/02/12 07:34:19;;;;;;;2.22;2.00;;;;;;;;;;5060512;28;20605;-82
2022/02/12 07:37:16;;;;;;;2.72;1.65;;;;;;;;;;5057472;22;20240;-82
2022/02/12 07:40:00;;;;;;;2.63;2.13;;;;;;;;;;5041866;28;20632;-83
2022/02/12 07:42:29;;;;;;;1.90;1.80;;;;;;;;;;5044948;28;20220;-83
2022/02/12 07:45:21;;;;;;;1.70;1.60;;;;;;;;;;5043232;28;20210;-83
2022/02/12 07:48:23;;;;;;;3.30;2.28;;;;;;;;;;5022312;28;20207;-83
2022/02/12 07:54:06;;;;;;;3.78;2.65;;;;;;;;;;4943174;29;20209;-83
2022/02/12 08:30:58;;;;;;;7.53;3.80;;;;;;;;;;4814896;29;20233;-84
2022/02/12 08:33:27;;;;;;;5.90;4.25;;;;;;;;;;4913500;28;20209;-87
2022/02/12 08:35:55;;;;;;;5.80;4.55;;;;;;;;;;4975841;28;20238;-84
2022/02/12 08:38:23;;;;;;;4.90;3.92;;;;;;;;;;5021499;28;20652;-84
2022/02/12 08:40:50;;;;;;;7.60;4.93;;;;;;;;;;5023029;28;20206;-83
2022/02/12 08:43:20;;;;;;;8.63;5.40;;;;;;;;;;5023791;28;20199;-85
2022/02/12 08:45:48;;;;;;;5.50;3.83;;;;;;;;;;5022682;28;20218;-84
2022/02/12 08:48:17;;;;;;;6.63;4.05;;;;;;;;;;5023966;28;20202;-84
2022/02/12 08:50:44;;;;;;;7.55;4.32;;;;;;;;;;5035661;28;20248;-83
2022/02/12 08:53:12;;;;;;;4.35;3.60;;;;;;;;;;5040543;28;20197;-85
2022/02/12 08:55:52;;;;;;;5.05;3.80;;;;;;;;;;5042248;28;20314;-85
2022/02/12 08:58:23;;;;;;;5.53;3.85;;;;;;;;;;5042529;28;20285;-85
2022/02/12 09:00:51;;;;;;;5.50;4.10;;;;;;;;;;5026676;28;20218;-84
2022/02/12 09:03:20;;;;;;;6.35;3.83;;;;;;;;;;5023575;28;20207;-84
2022/02/12 09:06:07;;;;;;;3.63;3.10;;;;;;;;;;5023847;28;20627;-84
2022/02/12 09:48:10;;;;;;;4.38;3.35;;;;;;;;;;4692028;30;20257;-84
2022/02/12 09:50:39;;;;;;;3.53;3.20;;;;;;;;;;4842436;29;20206;-84
2022/02/12 09:53:06;;;;;;;3.95;3.20;;;;;;;;;;4968737;28;20210;-84
2022/02/12 09:55:37;;;;;;;3.78;3.33;;;;;;;;;;5020983;28;20228;-84
2022/02/12 09:58:35;;;;;;;6.65;3.40;;;;;;;;;;5037956;28;20206;-84
2022/02/12 10:01:17;;;;;;;4.85;3.63;;;;;;;;;;4998693;28;20233;-84
2022/02/12 10:03:58;;;;;;;4.68;3.65;;;;;;;;;;5036234;28;20211;-84
2022/02/12 10:06:47;;;;;;;5.85;3.28;;;;;;;;;;5037315;28;20249;-84
2022/02/12 10:09:20;;;;;;;3.72;3.20;;;;;;;;;;5036858;28;20210;-84
2022/02/12 10:12:01;;;;;;;7.50;3.35;;;;;;;;;;5036240;28;20202;-84
2022/02/12 10:14:36;;;;;;;3.60;3.05;;;;;;;;;;5036204;28;20572;-85
2022/02/12 10:17:05;;;;;;;7.53;3.55;;;;;;;;;;5035504;28;20237;-84
2022/02/12 10:19:38;;;;;;;4.97;2.50;;;;;;;;;;5036419;28;20214;-84
2022/02/12 10:22:09;;;;;;;4.05;2.70;;;;;;;;;;5035575;28;20202;-85
2022/02/12 10:24:47;;;;;;;8.95;2.72;;;;;;;;;;5036225;28;20198;-84
2022/02/12 10:27:15;;;;;;;3.05;2.15;;;;;;;;;;5035693;28;20221;-84
2022/02/12 10:29:48;;;;;;;3.33;2.38;;;;;;;;;;5043306;28;20210;-84
2022/02/12 10:32:23;;;;;;;2.67;2.20;;;;;;;;;;5055684;28;20193;-84
2022/02/12 10:35:01;;;;;;;3.25;2.10;;;;;;;;;;5056000;28;20200;-84
2022/02/12 10:37:28;;;;;;;4.45;2.13;;;;;;;;;;5055551;28;20279;-84
2022/02/12 10:40:11;;;;;;;5.05;2.38;;;;;;;;;;5055853;28;20619;-83
2022/02/12 10:42:44;;;;;;;3.58;2.33;;;;;;;;;;5055699;28;20247;-84
2022/02/12 10:45:13;;;;;;;3.25;2.33;;;;;;;;;;5056109;28;20232;-83
2022/02/12 10:47:43;;;;;;;2.40;2.03;;;;;;;;;;5055764;28;20202;-84
2022/02/12 10:50:12;;;;;;;4.53;2.60;;;;;;;;;;5055422;28;20244;-84
2022/02/12 10:52:44;;;;;;;5.95;2.45;;;;;;;;;;5055760;28;20583;-83
2022/02/12 10:55:37;;;;;;;3.35;2.40;;;;;;;;;;5056309;28;20732;-83
2022/02/12 10:58:08;;;;;;;3.10;2.83;;;;;;;;;;5055809;28;20226;-84
2022/02/12 11:00:38;;;;;;;2.55;2.03;;;;;;;;;;5056289;28;20217;-83
2022/02/12 11:03:09;;;;;;;5.07;2.95;;;;;;;;;;5055068;28;20198;-83
2022/02/12 11:05:40;;;;;;;5.05;2.60;;;;;;;;;;5056014;28;20218;-84
2022/02/12 11:08:08;;;;;;;2.78;2.08;;;;;;;;;;5056528;28;20205;-83
2022/02/12 11:10:36;;;;;;;3.35;2.55;;;;;;;;;;5055762;28;20201;-83
2022/02/12 11:13:08;;;;;;;2.60;2.40;;;;;;;;;;5055286;28;20213;-83
2022/02/12 11:15:40;;;;;;;3.33;2.20;;;;;;;;;;5056071;28;20228;-84
2022/02/12 11:18:11;;;;;;;4.25;2.75;;;;;;;;;;5055755;28;20221;-84
2022/02/12 11:20:43;;;;;;;4.63;2.88;;;;;;;;;;5055386;28;20204;-84
2022/02/12 11:23:31;;;;;;;2.95;2.38;;;;;;;;;;5055422;28;20563;-84
2022/02/12 11:26:24;;;;;;;3.28;2.20;;;;;;;;;;5054885;28;20256;-84
2022/02/12 11:28:52;;;;;;;2.35;1.98;;;;;;;;;;5055223;28;20202;-83
2022/02/12 11:31:23;;;;;;;4.90;2.65;;;;;;;;;;5055419;28;20202;-84
2022/02/12 11:34:17;;;;;;;2.50;1.95;;;;;;;;;;5055188;28;20201;-84
2022/02/12 11:36:48;;;;;;;2.95;1.70;;;;;;;;;;5055150;28;20724;-83
2022/02/12 11:39:18;;;;;;;7.72;3.95;;;;;;;;;;5054618;28;20565;-83
2022/02/12 11:41:47;;;;;;;2.10;2.00;;;;;;;;;;5055013;28;20232;-84
2022/02/12 11:44:43;;;;;;;2.67;1.70;;;;;;;;;;5054485;28;20209;-83
2022/02/12 11:47:11;;;;;;;2.40;1.63;;;;;;;;;;5055038;28;20304;-84
2022/02/12 11:49:40;;;;;;;1.85;1.50;;;;;;;;;;5054611;28;20213;-84
2022/02/12 11:52:32;;;;;;;1.98;1.65;;;;;;;;;;5054844;28;20209;-84
2022/02/12 11:55:00;;;;;;;4.85;2.28;;;;;;;;;;5055016;28;20235;-84
2022/02/12 11:57:43;;;;;;;2.75;1.63;;;;;;;;;;5054137;28;20226;-84
2022/02/12 12:00:37;;;;;;;1.95;1.83;;;;;;;;;;5054313;28;20252;-84
2022/02/12 12:03:10;;;;;;;1.73;1.63;;;;;;;;;;5054604;28;20288;-84
2022/02/12 12:05:38;;;;;;;4.18;2.08;;;;;;;;;;5054226;28;20303;-83
2022/02/12 12:08:15;;;;;;;4.93;2.95;;;;;;;;;;5054144;28;20632;-83
2022/02/12 12:11:13;;;;;;;1.70;1.58;;;;;;;;;;5053974;28;20236;-84
2022/02/12 12:13:54;;;;;;;2.03;1.73;;;;;;;;;;5054169;28;20197;-84
2022/02/12 12:16:33;;;;;;;2.58;1.92;;;;;;;;;;5053446;28;20257;-83
2022/02/12 12:19:13;;;;;;;4.50;2.10;;;;;;;;;;5054624;28;20230;-83
2022/02/12 12:21:59;;;;;;;2.58;1.65;;;;;;;;;;5054910;28;20205;-82
2022/02/12 12:24:28;;;;;;;3.40;1.80;;;;;;;;;;5054921;28;20668;-84
2022/02/12 12:27:10;;;;;;;2.15;1.90;;;;;;;;;;5054840;28;20225;-83
2022/02/12 12:32:28;;;;;;;3.72;2.25;;;;;;;;;;5060662;28;20208;-82
2022/02/12 12:35:00;;;;;;;2.38;1.77;;;;;;;;;;5063480;28;20266;-83
2022/02/12 12:37:29;;;;;;;7.78;2.80;;;;;;;;;;5063287;28;20222;-82
2022/02/12 12:39:59;;;;;;;1.98;1.77;;;;;;;;;;5061732;28;20201;-82
2022/02/12 12:42:28;;;;;;;2.08;1.88;;;;;;;;;;5061817;28;20224;-84
2022/02/12 12:45:06;;;;;;;1.42;1.30;;;;;;;;;;5062606;28;20197;-82
2022/02/12 12:47:34;;;;;;;1.75;1.42;;;;;;;;;;5062443;28;20204;-83
2022/02/12 12:50:04;;;;;;;2.80;1.65;;;;;;;;;;5061727;28;20190;-82
2022/02/12 12:52:32;;;;;;;1.95;1.60;;;;;;;;;;5066223;28;20220;-81
2022/02/12 12:55:10;;;;;;;1.48;1.35;;;;;;;;;;5071052;28;20212;-81
2022/02/12 12:57:41;;;;;;;2.63;1.60;;;;;;;;;;5070440;28;20221;-82
2022/02/12 13:00:10;;;;;;;2.97;1.25;;;;;;;;;;5068344;28;20612;-82
2022/02/12 13:02:50;;;;;;;3.53;1.98;;;;;;;;;;5063545;28;20214;-84
2022/02/12 13:05:21;;;;;;;2.33;1.38;;;;;;;;;;5063957;28;20270;-82
2022/02/12 13:07:50;;;;;;;1.77;1.58;;;;;;;;;;5063394;28;20578;-81
2022/02/12 13:10:23;;;;;;;1.45;1.35;;;;;;;;;;5062761;28;20205;-82
2022/02/12 13:12:55;;;;;;;1.92;1.08;;;;;;;;;;5062608;28;20198;-81
2022/02/12 13:15:36;;;;;;;1.60;1.10;;;;;;;;;;5062374;28;20221;-82
2022/02/12 13:18:05;;;;;;;0.93;0.80;;;;;;;;;;5060941;28;20221;-82
2022/02/12 13:20:32;;;;;;;2.55;1.25;;;;;;;;;;5061332;28;20201;-81
2022/02/12 13:23:01;;;;;;;2.70;1.15;;;;;;;;;;5060431;28;20210;-82
2022/02/12 13:25:33;;;;;;;3.33;2.17;;;;;;;;;;5062527;28;20244;-82
2022/02/12 13:28:00;;;;;;;1.15;1.08;;;;;;;;;;5065509;28;20209;-81
2022/02/12 13:30:31;;;;;;;1.67;1.58;;;;;;;;;;5066629;28;20710;-81
2022/02/12 13:33:00;;;;;;;1.20;1.10;;;;;;;;;;5066557;28;20205;-82
2022/02/12 13:35:28;;;;;;;1.48;1.35;;;;;;;;;;5065988;28;20260;-81
2022/02/12 13:37:58;;;;;;;2.65;1.67;;;;;;;;;;5065619;28;20222;-83
2022/02/12 13:40:29;;;;;;;3.47;1.85;;;;;;;;;;5065506;28;20255;-82
2022/02/12 13:42:59;;;;;;;0.93;0.90;;;;;;;;;;5066215;28;20289;-82
2022/02/12 13:45:28;;;;;;;2.92;1.20;;;;;;;;;;5065703;28;20225;-83
2022/02/12 13:48:01;;;;;;;2.10;1.65;;;;;;;;;;5064811;28;20604;-82
2022/02/12 13:50:30;;;;;;;2.42;1.33;;;;;;;;;;5065473;28;20205;-81
2022/02/12 13:53:00;;;;;;;2.70;1.50;;;;;;;;;;5064677;28;20683;-82
2022/02/12 13:55:32;;;;;;;2.42;1.55;;;;;;;;;;5064867;28;20596;-81
2022/02/12 13:58:02;;;;;;;2.55;1.52;;;;;;;;;;5064645;28;20222;-81
2022/02/12 14:00:29;;;;;;;2.65;1.52;;;;;;;;;;5066329;28;20205;-81
2022/02/12 14:02:57;;;;;;;2.55;1.65;;;;;;;;;;5065202;28;20661;-82
2022/02/12 14:05:25;;;;;;;1.40;1.10;;;;;;;;;;5064527;28;20222;-82
2022/02/12 14:07:56;;;;;;;1.65;1.15;;;;;;;;;;5065197;28;20205;-83
2022/02/12 14:10:26;;;;;;;1.23;1.13;;;;;;;;;;5065094;28;20289;-82
2022/02/12 14:12:54;;;;;;;1.80;1.70;;;;;;;;;;5064118;28;20267;-82
2022/02/12 14:15:22;;;;;;;5.40;1.30;;;;;;;;;;5065018;28;20209;-79
2022/02/12 14:17:50;;;;;;;1.80;1.30;;;;;;;;;;5063076;28;20236;-83
2022/02/12 14:20:17;;;;;;;1.95;1.30;;;;;;;;;;5064000;28;20201;-82
2022/02/12 14:22:45;;;;;;;1.75;1.65;;;;;;;;;;5061973;28;20627;-83
2022/02/12 14:25:13;;;;;;;4.75;1.63;;;;;;;;;;5063989;28;20228;-82
2022/02/12 14:27:40;;;;;;;1.25;1.13;;;;;;;;;;5063841;28;20202;-82
2022/02/12 14:30:10;;;;;;;1.27;1.02;;;;;;;;;;5063888;28;20205;-82
2022/02/12 14:32:38;;;;;;;3.35;1.38;;;;;;;;;;5063025;28;20233;-83
2022/02/12 14:35:06;;;;;;;1.50;1.40;;;;;;;;;;5063312;28;20205;-83
2022/02/12 14:37:34;;;;;;;1.77;1.40;;;;;;;;;;5062622;28;20288;-82
2022/02/12 14:40:01;;;;;;;3.05;1.30;;;;;;;;;;5062815;28;20222;-83
2022/02/12 14:42:28;;;;;;;1.58;1.48;;;;;;;;;;5063695;28;20213;-84
2022/02/12 14:44:56;;;;;;;2.25;1.27;;;;;;;;;;5063263;28;20264;-82
2022/02/12 14:47:23;;;;;;;1.30;1.20;;;;;;;;;;5063599;28;20252;-83
2022/02/12 14:49:51;;;;;;;3.08;1.50;;;;;;;;;;5062826;28;20247;-82
2022/02/12 14:52:19;;;;;;;3.17;1.40;;;;;;;;;;5061858;28;20212;-83
2022/02/12 14:54:48;;;;;;;2.30;1.15;;;;;;;;;;5063388;28;20704;-82
2022/02/12 14:57:16;;;;;;;1.38;1.25;;;;;;;;;;5062928;28;20236;-82
2022/02/12 14:59:43;;;;;;;1.73;1.30;;;;;;;;;;5062254;28;20225;-83
2022/02/12 15:02:10;;;;;;;1.25;1.15;;;;;;;;;;5062601;28;20693;-82
2022/02/12 15:04:37;;;;;;;1.75;1.58;;;;;;;;;;5062255;28;20561;-83
2022/02/12 15:07:06;;;;;;;1.17;1.08;;;;;;;;;;5062368;28;20643;-83
2022/02/12 15:09:34;;;;;;;1.33;1.23;;;;;;;;;;5063034;28;20209;-82
2022/02/12 15:12:01;;;;;;;1.23;1.10;;;;;;;;;;5063062;28;20206;-83
2022/02/12 15:14:28;;;;;;;1.45;1.27;;;;;;;;;;5062324;28;20625;-82
2022/02/12 15:16:56;;;;;;;2.17;1.98;;;;;;;;;;5061816;28;20576;-82
2022/02/12 15:19:23;;;;;;;1.55;1.45;;;;;;;;;;5064553;28;20222;-82
2022/02/12 15:21:50;;;;;;;2.10;1.40;;;;;;;;;;5061531;28;20213;-82
2022/02/12 15:24:20;;;;;;;1.45;1.33;;;;;;;;;;5060980;28;20209;-83
2022/02/12 15:26:47;;;;;;;4.05;1.25;;;;;;;;;;5062976;28;20235;-82
2022/02/12 15:29:15;;;;;;;2.08;1.08;;;;;;;;;;5061990;28;20205;-80
2022/02/12 15:31:43;;;;;;;3.95;1.90;;;;;;;;;;5062666;28;20204;-81
2022/02/12 15:34:10;;;;;;;1.02;1.02;;;;;;;;;;5061517;28;20696;-81
2022/02/12 15:36:37;;;;;;;1.85;1.35;;;;;;;;;;5062481;28;20725;-81
2022/02/12 15:39:04;;;;;;;1.30;1.20;;;;;;;;;;5062152;28;20690;-82
2022/02/12 15:41:33;;;;;;;1.50;1.40;;;;;;;;;;5062064;28;20201;-81
2022/02/12 15:44:00;;;;;;;2.28;1.33;;;;;;;;;;5060845;28;20201;-82
2022/02/12 15:46:27;;;;;;;2.08;1.58;;;;;;;;;;5061639;28;20232;-80
2022/02/12 15:48:55;;;;;;;1.67;1.55;;;;;;;;;;5062840;28;20206;-81
2022/02/12 15:51:22;;;;;;;1.92;1.70;;;;;;;;;;5061228;28;20661;-81
2022/02/12 15:53:49;;;;;;;2.88;1.83;;;;;;;;;;5060047;28;20198;-81
2022/02/12 15:56:17;;;;;;;1.90;1.42;;;;;;;;;;5061052;28;20221;-81
2022/02/12 15:58:46;;;;;;;1.50;1.40;;;;;;;;;;5061718;28;20212;-82
2022/02/12 16:01:16;;;;;;;2.15;1.65;;;;;;;;;;5041992;28;20226;-80
2022/02/12 16:03:44;;;;;;;1.23;1.23;;;;;;;;;;5040745;28;20202;-79
2022/02/12 16:06:12;;;;;;;1.73;1.63;;;;;;;;;;5041979;28;20230;-82
2022/02/12 16:08:39;;;;;;;8.25;5.57;;;;;;;;;;5040449;28;20241;-82
2022/02/12 16:11:06;;;;;;;11.07;8.68;;;;;;;;;;5042204;28;20699;-82
2022/02/12 16:13:33;;;;;;;13.73;9.80;;;;;;;;;;5040128;28;20565;-82
2022/02/12 16:16:04;;;;;;;26.58;20.83;;;;;;;;;;5041078;28;20225;-81
2022/02/12 16:18:31;;;;;;;13.93;9.35;;;;;;;;;;5040108;28;20209;-82
2022/02/12 16:20:59;;;;;;;8.77;5.88;;;;;;;;;;5040429;28;20249;-82
2022/02/12 16:23:26;;;;;;;4.18;3.30;;;;;;;;;;5040903;28;20260;-82
2022/02/12 16:25:53;;;;;;;6.72;5.10;;;;;;;;;;5041769;28;20300;-81